Time;durP1;ratioP1;P1;durP2;ratioP2;P2;SDS_P1;SDS_P2;PMS_P1;PMS_P2;Temp;Humidity;BMP_temperature;BMP_pressure;BME280_temperature;BME280_humidity;BME280_pressure;Samples;Min_cycle;Max_cycle;Signal;HPM_P1;HPM_P2
2023/10/05 00:01:12;;;;;;;26.38;20.45;;;;;;;;;;5090618;27;20024;-63
2023/10/05 00:03:38;;;;;;;;;;;;;;;;;;5071872;28;20031;-63
2023/10/05 00:06:13;;;;;;;22.40;18.90;;;;;;;;;;5075400;28;21180;-63
2023/10/05 00:08:45;;;;;;;25.98;18.38;;;;;;;;;;5078688;28;20035;-63
2023/10/05 00:11:22;;;;;;;22.98;17.95;;;;;;;;;;5073336;28;20058;-63
2023/10/05 00:13:52;;;;;;;23.08;18.27;;;;;;;;;;5088841;28;20023;-63
2023/10/05 00:16:20;;;;;;;22.50;18.10;;;;;;;;;;5073933;28;20008;-63
2023/10/05 00:18:46;;;;;;;22.63;19.60;;;;;;;;;;5068001;28;20102;-63
2023/10/05 00:21:11;;;;;;;23.67;20.20;;;;;;;;;;5055144;28;20261;-64
2023/10/05 00:23:37;;;;;;;22.87;20.20;;;;;;;;;;5053032;28;20028;-63
2023/10/05 00:26:03;;;;;;;25.70;20.23;;;;;;;;;;5071123;28;20111;-63
2023/10/05 00:28:29;;;;;;;26.02;20.88;;;;;;;;;;5083471;27;20095;-63
2023/10/05 00:30:54;;;;;;;27.73;19.90;;;;;;;;;;5074050;28;20023;-63
2023/10/05 00:33:20;;;;;;;24.43;20.20;;;;;;;;;;5055750;28;20024;-63
2023/10/05 00:35:47;;;;;;;22.92;19.25;;;;;;;;;;5072374;28;20123;-62
2023/10/05 00:38:12;;;;;;;23.85;19.02;;;;;;;;;;5072528;28;20039;-63
2023/10/05 00:40:43;;;;;;;21.75;18.08;;;;;;;;;;5075824;28;20016;-63
2023/10/05 00:43:21;;;;;;;25.48;18.98;;;;;;;;;;5075076;28;20028;-60
2023/10/05 00:45:46;;;;;;;24.35;19.23;;;;;;;;;;5066328;28;20529;-63
2023/10/05 00:48:27;;;;;;;25.65;19.42;;;;;;;;;;5075135;28;20023;-63
2023/10/05 00:50:59;;;;;;;20.90;18.27;;;;;;;;;;5076385;28;20116;-63
2023/10/05 00:53:26;;;;;;;23.88;18.50;;;;;;;;;;5073985;28;20035;-62
2023/10/05 00:55:57;;;;;;;21.35;17.40;;;;;;;;;;5073108;28;20439;-62
2023/10/05 00:58:34;;;;;;;24.05;18.98;;;;;;;;;;5068740;28;20048;-62
2023/10/05 01:01:05;;;;;;;23.25;18.00;;;;;;;;;;5054312;28;20035;-62
2023/10/05 01:03:46;;;;;;;20.98;18.33;;;;;;;;;;5055778;28;20028;-63
2023/10/05 01:07:06;;;;;;;23.08;18.08;;;;;;;;;;5074054;28;20099;-62
2023/10/05 01:09:00;;;;;;;24.48;17.95;;;;;;;;;;5058504;28;20035;-64
2023/10/05 01:11:54;;;;;;;21.35;18.65;;;;;;;;;;5078806;28;20119;-62
2023/10/05 01:14:19;;;;;;;22.05;18.00;;;;;;;;;;5069573;28;20039;-62
2023/10/05 01:16:45;;;;;;;22.27;17.88;;;;;;;;;;5065535;28;20012;-63
2023/10/05 01:19:12;;;;;;;21.40;18.15;;;;;;;;;;5076064;28;20030;-63
2023/10/05 01:21:39;;;;;;;23.90;17.67;;;;;;;;;;5049771;28;20028;-62
2023/10/05 01:24:05;;;;;;;19.35;16.27;;;;;;;;;;5070623;28;20123;-63
2023/10/05 01:26:32;;;;;;;20.05;16.45;;;;;;;;;;5057499;28;21451;-62
2023/10/05 01:28:58;;;;;;;20.98;16.77;;;;;;;;;;5080568;28;20921;-63
2023/10/05 01:31:23;;;;;;;21.08;16.88;;;;;;;;;;5071776;28;20021;-63
2023/10/05 01:33:48;;;;;;;23.48;17.67;;;;;;;;;;5078375;28;20023;-63
2023/10/05 01:36:16;;;;;;;22.27;17.00;;;;;;;;;;5053992;28;20107;-63
2023/10/05 01:38:45;;;;;;;22.48;17.20;;;;;;;;;;5072464;28;20020;-63
2023/10/05 01:41:17;;;;;;;22.97;18.47;;;;;;;;;;5071820;28;20015;-62
2023/10/05 01:43:42;;;;;;;21.60;16.33;;;;;;;;;;5065230;28;20027;-63
2023/10/05 01:46:10;;;;;;;22.60;17.40;;;;;;;;;;5072526;28;20020;-61
2023/10/05 01:48:36;;;;;;;21.27;16.23;;;;;;;;;;5068464;28;20187;-62
2023/10/05 01:51:14;;;;;;;21.77;16.35;;;;;;;;;;5054709;28;20067;-61
2023/10/05 01:53:40;;;;;;;20.10;15.70;;;;;;;;;;5072561;28;20511;-62
2023/10/05 01:56:11;;;;;;;20.10;15.82;;;;;;;;;;5051116;28;20023;-61
2023/10/05 01:58:43;;;;;;;20.33;15.30;;;;;;;;;;5052437;28;20073;-61
2023/10/05 02:01:10;;;;;;;25.55;15.77;;;;;;;;;;5073895;28;20684;-62
2023/10/05 02:03:36;;;;;;;20.63;16.13;;;;;;;;;;5063107;28;20038;-62
2023/10/05 02:06:11;;;;;;;21.48;15.05;;;;;;;;;;5071107;28;20024;-61
2023/10/05 02:08:36;;;;;;;20.63;16.40;;;;;;;;;;5052164;28;20458;-61
2023/10/05 02:11:04;;;;;;;18.98;14.88;;;;;;;;;;5074402;28;20074;-62
2023/10/05 02:13:31;;;;;;;21.85;16.30;;;;;;;;;;5062552;28;20771;-62
2023/10/05 02:15:59;;;;;;;22.30;15.63;;;;;;;;;;5068992;28;20394;-62
2023/10/05 02:18:24;;;;;;;17.48;15.35;;;;;;;;;;5049459;28;21207;-61
2023/10/05 02:23:37;;;;;;;19.25;15.48;;;;;;;;;;5071793;28;20774;-61
2023/10/05 02:26:05;;;;;;;19.92;15.02;;;;;;;;;;5071255;28;20024;-61
2023/10/05 02:28:33;;;;;;;20.52;15.63;;;;;;;;;;5051720;28;20107;-61
2023/10/05 02:31:08;;;;;;;20.60;16.33;;;;;;;;;;5054991;28;20536;-62
2023/10/05 02:33:37;;;;;;;20.08;15.73;;;;;;;;;;5053765;28;20309;-63
2023/10/05 02:36:10;;;;;;;18.70;15.73;;;;;;;;;;5073959;28;20102;-61
2023/10/05 02:38:39;;;;;;;21.08;16.13;;;;;;;;;;5056991;28;20535;-61
2023/10/05 02:41:05;;;;;;;20.67;15.82;;;;;;;;;;5071997;28;20012;-61
2023/10/05 02:43:38;;;;;;;18.55;14.52;;;;;;;;;;5075966;28;20024;-62
2023/10/05 02:46:12;;;;;;;23.48;15.82;;;;;;;;;;5056622;28;20479;-62
2023/10/05 02:48:41;;;;;;;24.17;15.23;;;;;;;;;;5070873;28;20051;-62
2023/10/05 02:51:06;;;;;;;;;;;;;;;;;;5065679;28;20031;-61
2023/10/05 02:53:40;;;;;;;26.13;14.83;;;;;;;;;;5079512;28;19912;-61
2023/10/05 02:56:13;;;;;;;25.80;15.90;;;;;;;;;;5058941;28;20028;-59
2023/10/05 02:58:38;;;;;;;22.08;14.70;;;;;;;;;;5059231;28;20465;-61
2023/10/05 03:01:09;;;;;;;21.60;15.02;;;;;;;;;;5056507;28;20020;-62
2023/10/05 03:03:35;;;;;;;19.30;15.20;;;;;;;;;;5066242;28;20601;-62
2023/10/05 03:06:00;;;;;;;26.20;15.75;;;;;;;;;;5072604;28;20073;-61
2023/10/05 03:08:29;;;;;;;22.05;15.10;;;;;;;;;;5074437;28;20031;-61
2023/10/05 03:10:59;;;;;;;;;;;;;;;;;;5072498;28;20019;-62
2023/10/05 03:13:24;;;;;;;22.60;15.32;;;;;;;;;;5078280;28;20363;-64
2023/10/05 03:15:50;;;;;;;22.83;15.20;;;;;;;;;;5071162;28;20024;-61
2023/10/05 03:18:15;;;;;;;21.38;14.52;;;;;;;;;;5074691;28;20554;-62
2023/10/05 03:20:44;;;;;;;22.93;15.57;;;;;;;;;;5073933;28;20031;-62
2023/10/05 03:23:11;;;;;;;21.83;15.90;;;;;;;;;;5058891;28;20290;-62
2023/10/05 03:25:37;;;;;;;22.52;15.55;;;;;;;;;;5072915;28;20847;-60
2023/10/05 03:28:02;;;;;;;19.13;14.90;;;;;;;;;;5058141;28;20023;-62
2023/10/05 03:30:30;;;;;;;19.40;15.07;;;;;;;;;;5074491;28;20266;-61
2023/10/05 03:33:00;;;;;;;24.58;16.13;;;;;;;;;;5056813;28;20078;-62
2023/10/05 03:35:32;;;;;;;18.88;14.98;;;;;;;;;;5071850;28;20031;-64
2023/10/05 03:37:57;;;;;;;18.83;14.57;;;;;;;;;;5071932;28;20015;-66
2023/10/05 03:40:27;;;;;;;18.47;14.97;;;;;;;;;;5071149;28;21087;-62
2023/10/05 03:42:59;;;;;;;20.48;15.35;;;;;;;;;;5050840;28;20021;-62
2023/10/05 03:45:26;;;;;;;23.92;15.65;;;;;;;;;;5057016;28;20077;-63
2023/10/05 03:47:53;;;;;;;25.73;14.75;;;;;;;;;;5073813;28;20078;-63
2023/10/05 03:50:18;;;;;;;20.17;14.35;;;;;;;;;;5067432;28;20048;-64
2023/10/05 03:52:47;;;;;;;21.38;15.15;;;;;;;;;;5069086;28;20081;-66
2023/10/05 03:55:13;;;;;;;18.40;14.87;;;;;;;;;;5071234;28;20074;-64
2023/10/05 03:57:41;;;;;;;20.33;15.13;;;;;;;;;;5071633;28;20012;-64
2023/10/05 04:02:47;;;;;;;16.42;14.18;;;;;;;;;;5069324;28;20035;-64
2023/10/05 04:05:18;;;;;;;20.27;14.50;;;;;;;;;;5064717;28;20470;-63
2023/10/05 04:07:44;;;;;;;18.55;14.00;;;;;;;;;;5052704;28;20016;-63
2023/10/05 04:10:13;;;;;;;19.27;14.00;;;;;;;;;;5071554;28;20779;-64
2023/10/05 04:12:41;;;;;;;17.25;13.65;;;;;;;;;;5071681;28;20314;-64
2023/10/05 04:15:11;;;;;;;16.75;13.32;;;;;;;;;;5053759;28;20027;-64
2023/10/05 04:17:37;;;;;;;20.80;14.07;;;;;;;;;;5070545;28;20028;-64
2023/10/05 04:20:17;;;;;;;17.30;13.30;;;;;;;;;;5066349;28;20382;-61
2023/10/05 04:22:42;;;;;;;20.25;13.38;;;;;;;;;;5069924;28;20020;-62
2023/10/05 04:25:08;;;;;;;28.17;14.37;;;;;;;;;;5051555;28;20081;-61
2023/10/05 04:27:33;;;;;;;30.15;14.77;;;;;;;;;;5052965;28;21065;-61
2023/10/05 04:29:59;;;;;;;26.23;14.52;;;;;;;;;;5068078;28;20522;-62
2023/10/05 04:32:26;;;;;;;20.13;14.20;;;;;;;;;;5069002;28;20027;-62
2023/10/05 04:34:52;;;;;;;24.60;13.90;;;;;;;;;;5066340;28;20981;-64
2023/10/05 04:37:20;;;;;;;17.97;13.80;;;;;;;;;;5070790;28;20110;-62
2023/10/05 04:39:46;;;;;;;22.73;14.45;;;;;;;;;;5066544;28;20262;-65
2023/10/05 04:42:11;;;;;;;19.07;14.23;;;;;;;;;;5063936;28;20093;-63
2023/10/05 04:44:37;;;;;;;23.88;14.68;;;;;;;;;;5067842;28;20804;-62
2023/10/05 04:47:09;;;;;;;23.33;15.02;;;;;;;;;;5067269;28;20024;-60
2023/10/05 04:49:37;;;;;;;19.08;14.20;;;;;;;;;;5068050;28;20047;-62
2023/10/05 04:52:06;;;;;;;21.48;13.43;;;;;;;;;;5049372;28;20144;-62
2023/10/05 04:54:36;;;;;;;17.88;13.80;;;;;;;;;;5047550;28;20112;-63
2023/10/05 04:57:07;;;;;;;20.35;13.63;;;;;;;;;;5062307;28;20019;-63
2023/10/05 05:02:12;;;;;;;17.10;13.02;;;;;;;;;;5061968;28;20115;-63
2023/10/05 05:07:11;;;;;;;17.80;13.32;;;;;;;;;;5052563;28;20189;-63
2023/10/05 05:09:41;;;;;;;21.48;13.52;;;;;;;;;;5077968;28;20020;-61
2023/10/05 05:12:09;;;;;;;31.42;14.68;;;;;;;;;;5053225;28;20027;-63
2023/10/05 05:14:47;;;;;;;31.13;15.25;;;;;;;;;;5070417;28;20644;-63
2023/10/05 05:17:15;;;;;;;32.38;14.27;;;;;;;;;;5046849;28;20692;-63
2023/10/05 05:19:41;;;;;;;34.47;14.60;;;;;;;;;;5090516;27;20424;-63
2023/10/05 05:22:09;;;;;;;26.58;14.48;;;;;;;;;;5053344;28;20027;-64
2023/10/05 05:24:35;;;;;;;25.83;14.63;;;;;;;;;;5067041;28;20097;-65
2023/10/05 05:27:45;;;;;;;23.45;13.50;;;;;;;;;;5073566;28;20748;-63
2023/10/05 05:29:51;;;;;;;22.45;13.13;;;;;;;;;;5063467;28;20041;-63
2023/10/05 05:32:19;;;;;;;19.50;12.52;;;;;;;;;;5069934;28;20089;-62
2023/10/05 05:34:45;;;;;;;17.30;12.10;;;;;;;;;;5062907;28;20024;-62
2023/10/05 05:37:43;;;;;;;16.10;12.50;;;;;;;;;;5064591;28;20068;-61
2023/10/05 05:40:11;;;;;;;17.15;11.63;;;;;;;;;;5064001;28;20419;-63
2023/10/05 05:42:37;;;;;;;15.73;11.68;;;;;;;;;;5070842;28;20020;-63
2023/10/05 05:45:09;;;;;;;21.23;12.43;;;;;;;;;;5068083;28;20750;-63
2023/10/05 05:47:35;;;;;;;15.60;11.60;;;;;;;;;;5051704;28;20424;-64
2023/10/05 05:50:01;;;;;;;17.73;11.98;;;;;;;;;;5073083;28;20139;-63
2023/10/05 05:52:26;;;;;;;18.70;12.23;;;;;;;;;;5071343;28;20024;-64
2023/10/05 05:54:51;;;;;;;27.55;13.30;;;;;;;;;;5071046;28;20136;-63
2023/10/05 05:57:20;;;;;;;32.95;13.52;;;;;;;;;;5054455;28;20024;-64
2023/10/05 05:59:46;;;;;;;24.95;13.32;;;;;;;;;;5048018;28;20044;-64
2023/10/05 06:02:13;;;;;;;24.63;14.40;;;;;;;;;;5070938;28;20108;-64
2023/10/05 06:04:40;;;;;;;26.88;13.57;;;;;;;;;;5069121;28;20154;-63
2023/10/05 06:07:11;;;;;;;21.40;13.50;;;;;;;;;;5060960;28;20021;-63
2023/10/05 06:09:37;;;;;;;25.58;15.23;;;;;;;;;;5073713;28;20051;-63
2023/10/05 06:12:03;;;;;;;21.42;12.63;;;;;;;;;;5056264;28;20024;-63
2023/10/05 06:14:28;;;;;;;34.33;14.63;;;;;;;;;;5066190;28;20039;-63
2023/10/05 06:16:54;;;;;;;39.15;14.05;;;;;;;;;;5057710;28;20154;-63
2023/10/05 06:19:21;;;;;;;27.77;13.85;;;;;;;;;;5052574;28;20033;-63
2023/10/05 06:21:51;;;;;;;30.20;14.35;;;;;;;;;;5059869;28;20028;-63
2023/10/05 06:24:17;;;;;;;29.85;13.45;;;;;;;;;;5053392;28;20028;-64
2023/10/05 06:26:43;;;;;;;27.73;13.27;;;;;;;;;;5078977;28;20285;-63
2023/10/05 06:29:08;;;;;;;21.80;13.02;;;;;;;;;;5072521;28;20004;-63
2023/10/05 06:31:37;;;;;;;18.15;11.73;;;;;;;;;;5073378;28;20882;-63
2023/10/05 06:34:09;;;;;;;17.25;11.13;;;;;;;;;;5055554;28;20025;-63
2023/10/05 06:36:34;;;;;;;16.50;11.32;;;;;;;;;;5075964;28;20023;-63
2023/10/05 06:39:01;;;;;;;22.58;10.48;;;;;;;;;;5076472;28;20035;-63
2023/10/05 06:41:31;;;;;;;17.75;10.52;;;;;;;;;;5069969;28;20027;-63
2023/10/05 06:43:58;;;;;;;19.88;10.90;;;;;;;;;;5066066;28;20029;-63
2023/10/05 06:46:26;;;;;;;18.35;10.35;;;;;;;;;;5053313;28;20036;-63
2023/10/05 06:48:54;;;;;;;20.25;10.68;;;;;;;;;;5071025;28;20048;-63
2023/10/05 06:51:26;;;;;;;19.08;10.63;;;;;;;;;;5072407;28;20674;-63
2023/10/05 06:53:52;;;;;;;23.52;10.27;;;;;;;;;;5050544;28;20289;-64
2023/10/05 06:56:18;;;;;;;21.65;11.55;;;;;;;;;;5067948;28;20104;-63
2023/10/05 06:58:44;;;;;;;20.45;11.88;;;;;;;;;;5050851;28;20012;-63
2023/10/05 07:01:09;;;;;;;20.08;12.50;;;;;;;;;;5058276;28;20020;-63
2023/10/05 07:03:34;;;;;;;21.13;13.15;;;;;;;;;;5070313;28;20121;-62
2023/10/05 07:06:00;;;;;;;22.93;14.97;;;;;;;;;;5066892;28;20051;-63
2023/10/05 07:08:25;;;;;;;20.40;15.60;;;;;;;;;;5077408;28;20019;-63
2023/10/05 07:10:53;;;;;;;21.27;16.03;;;;;;;;;;5089285;27;20023;-63
2023/10/05 07:13:21;;;;;;;24.20;16.35;;;;;;;;;;5079260;28;20254;-61
2023/10/05 07:15:46;;;;;;;23.83;16.92;;;;;;;;;;5076284;28;20035;-62
2023/10/05 07:18:12;;;;;;;24.23;16.67;;;;;;;;;;5072570;28;20016;-61
2023/10/05 07:20:41;;;;;;;22.63;15.43;;;;;;;;;;5066676;28;20013;-61
2023/10/05 07:23:06;;;;;;;22.05;16.08;;;;;;;;;;5073777;28;20016;-62
2023/10/05 07:25:33;;;;;;;26.98;16.38;;;;;;;;;;5075185;28;20799;-61
2023/10/05 07:27:58;;;;;;;24.98;17.00;;;;;;;;;;5074183;28;20119;-62
2023/10/05 07:30:26;;;;;;;25.10;16.77;;;;;;;;;;5059419;28;20500;-64
2023/10/05 07:32:51;;;;;;;24.30;16.20;;;;;;;;;;5070849;28;21079;-64
2023/10/05 07:35:16;;;;;;;21.83;16.50;;;;;;;;;;5067924;28;20061;-63
2023/10/05 07:37:42;;;;;;;22.63;16.17;;;;;;;;;;5073378;28;20597;-63
2023/10/05 07:40:13;;;;;;;24.48;15.90;;;;;;;;;;5068297;28;20038;-64
2023/10/05 07:42:39;;;;;;;23.10;15.85;;;;;;;;;;5070926;28;20020;-64
2023/10/05 07:45:07;;;;;;;19.95;15.05;;;;;;;;;;5073500;28;20048;-64
2023/10/05 07:47:35;;;;;;;20.40;12.73;;;;;;;;;;5050007;28;20135;-64
2023/10/05 07:50:00;;;;;;;16.75;10.27;;;;;;;;;;5053654;28;20059;-61
2023/10/05 07:52:25;;;;;;;13.35;8.45;;;;;;;;;;5076350;28;20032;-63
2023/10/05 07:54:51;;;;;;;11.27;7.90;;;;;;;;;;5066851;28;20502;-63
2023/10/05 07:57:17;;;;;;;11.52;7.40;;;;;;;;;;5077058;28;20369;-64
2023/10/05 07:59:42;;;;;;;11.40;6.88;;;;;;;;;;5077893;27;20351;-63
2023/10/05 08:02:08;;;;;;;11.70;6.30;;;;;;;;;;5078274;28;20031;-63
2023/10/05 08:04:34;;;;;;;15.10;6.80;;;;;;;;;;5060385;28;20798;-63
2023/10/05 08:07:02;;;;;;;10.65;6.53;;;;;;;;;;5078187;28;20028;-64
2023/10/05 08:09:28;;;;;;;13.43;7.30;;;;;;;;;;5066578;28;20027;-63
2023/10/05 08:11:55;;;;;;;12.48;6.72;;;;;;;;;;5079852;27;20031;-63
2023/10/05 08:14:20;;;;;;;11.00;6.68;;;;;;;;;;5063258;28;20032;-63
2023/10/05 08:16:48;;;;;;;11.98;6.65;;;;;;;;;;5079305;28;20870;-61
2023/10/05 08:19:15;;;;;;;12.35;6.97;;;;;;;;;;5059596;28;20034;-64
2023/10/05 08:21:41;;;;;;;12.77;6.90;;;;;;;;;;5079854;28;20840;-64
2023/10/05 08:24:07;;;;;;;9.77;6.35;;;;;;;;;;5067109;28;20569;-64
2023/10/05 08:26:32;;;;;;;14.63;6.20;;;;;;;;;;5078587;28;20023;-64
2023/10/05 08:28:57;;;;;;;10.43;6.27;;;;;;;;;;5077926;27;20433;-63
2023/10/05 08:31:26;;;;;;;14.63;5.93;;;;;;;;;;5074485;27;20082;-63
2023/10/05 08:34:00;;;;;;;11.38;5.75;;;;;;;;;;5079652;27;20336;-63
2023/10/05 08:36:26;;;;;;;11.23;5.20;;;;;;;;;;5058993;27;20027;-63
2023/10/05 08:38:54;;;;;;;9.73;6.05;;;;;;;;;;5062831;28;20383;-63
2023/10/05 08:41:31;;;;;;;10.23;5.85;;;;;;;;;;5077453;28;20020;-63
2023/10/05 08:43:59;;;;;;;13.73;6.55;;;;;;;;;;5078414;28;20035;-63
2023/10/05 08:46:25;;;;;;;9.95;5.90;;;;;;;;;;5061325;28;20024;-63
2023/10/05 08:48:51;;;;;;;11.90;7.10;;;;;;;;;;5054743;28;20069;-63
2023/10/05 08:51:17;;;;;;;9.82;6.63;;;;;;;;;;5047859;28;20103;-62
2023/10/05 08:53:50;;;;;;;11.15;6.68;;;;;;;;;;5045668;28;20050;-63
2023/10/05 08:56:18;;;;;;;11.57;6.63;;;;;;;;;;5060712;28;20041;-65
2023/10/05 08:58:47;;;;;;;12.13;6.55;;;;;;;;;;5060076;28;20268;-63
2023/10/05 09:01:27;;;;;;;10.43;6.22;;;;;;;;;;5045844;28;20100;-63
2023/10/05 09:07:08;;;;;;;11.07;6.55;;;;;;;;;;5058966;28;20027;-63
2023/10/05 09:09:54;;;;;;;10.75;6.60;;;;;;;;;;5062576;28;20115;-63
2023/10/05 09:12:37;;;;;;;13.30;7.60;;;;;;;;;;5058011;28;20090;-63
2023/10/05 09:15:10;;;;;;;14.52;7.63;;;;;;;;;;5059107;28;21130;-63
2023/10/05 09:17:38;;;;;;;12.95;8.43;;;;;;;;;;5051684;28;20060;-63
2023/10/05 09:20:21;;;;;;;14.80;8.02;;;;;;;;;;5059250;28;20051;-63
2023/10/05 09:22:47;;;;;;;18.25;8.27;;;;;;;;;;5057747;28;20023;-63
2023/10/05 09:25:17;;;;;;;18.27;7.55;;;;;;;;;;5057302;28;20021;-63
2023/10/05 09:27:50;;;;;;;;;;;;;;;;;;5059504;28;20021;-63
2023/10/05 09:30:21;;;;;;;12.75;7.57;;;;;;;;;;5046405;28;19915;-64
2023/10/05 09:32:46;;;;;;;13.30;7.22;;;;;;;;;;5058127;28;20012;-63
2023/10/05 09:35:26;;;;;;;16.13;7.87;;;;;;;;;;5057228;28;20364;-63
2023/10/05 09:37:54;;;;;;;14.30;8.80;;;;;;;;;;5043695;28;20257;-65
2023/10/05 09:40:19;;;;;;;11.90;8.07;;;;;;;;;;5057717;28;20041;-63
2023/10/05 09:42:45;;;;;;;14.30;8.23;;;;;;;;;;5056995;28;20023;-62
2023/10/05 09:45:14;;;;;;;18.60;8.32;;;;;;;;;;5057528;28;20020;-63
2023/10/05 09:47:41;;;;;;;13.13;8.38;;;;;;;;;;5056534;28;20074;-63
2023/10/05 09:50:10;;;;;;;12.70;8.98;;;;;;;;;;5058650;28;20779;-63
2023/10/05 09:52:38;;;;;;;18.03;9.67;;;;;;;;;;5091620;27;20285;-63
2023/10/05 09:55:06;;;;;;;13.43;8.30;;;;;;;;;;5059003;28;20028;-63
2023/10/05 09:57:40;;;;;;;13.88;8.75;;;;;;;;;;5078284;28;20123;-63
2023/10/05 10:00:11;;;;;;;16.52;10.00;;;;;;;;;;5059449;28;20020;-64
2023/10/05 10:02:39;;;;;;;15.57;10.52;;;;;;;;;;5077760;28;20051;-63
2023/10/05 10:05:16;;;;;;;16.77;9.95;;;;;;;;;;5077608;28;20085;-63
2023/10/05 10:07:49;;;;;;;15.15;9.52;;;;;;;;;;5060409;28;20019;-64
2023/10/05 10:10:18;;;;;;;15.18;10.85;;;;;;;;;;5080191;28;20042;-63
2023/10/05 10:12:46;;;;;;;14.80;10.27;;;;;;;;;;5079644;28;20012;-63
2023/10/05 10:15:28;;;;;;;15.60;10.55;;;;;;;;;;5076513;28;20139;-64
2023/10/05 10:18:03;;;;;;;13.88;9.80;;;;;;;;;;5082237;28;20038;-63
2023/10/05 10:20:38;;;;;;;14.43;10.55;;;;;;;;;;5079681;28;20392;-64
2023/10/05 10:23:18;;;;;;;16.73;11.48;;;;;;;;;;5089804;28;20019;-64
2023/10/05 10:25:46;;;;;;;16.08;10.95;;;;;;;;;;5086526;28;20051;-63
2023/10/05 10:28:17;;;;;;;15.70;10.73;;;;;;;;;;5083867;28;20475;-63
2023/10/05 10:30:47;;;;;;;20.88;11.13;;;;;;;;;;5072735;28;20527;-62
2023/10/05 10:33:30;;;;;;;16.90;11.45;;;;;;;;;;5084188;28;20145;-64
2023/10/05 10:35:57;;;;;;;15.35;9.82;;;;;;;;;;5083150;28;20024;-64
2023/10/05 10:38:22;;;;;;;14.82;9.07;;;;;;;;;;5088791;28;20013;-62
2023/10/05 10:41:06;;;;;;;13.95;8.73;;;;;;;;;;5083871;28;20023;-64
2023/10/05 10:43:32;;;;;;;12.05;8.05;;;;;;;;;;5085535;28;20020;-63
2023/10/05 10:45:59;;;;;;;12.35;7.68;;;;;;;;;;5096770;28;20760;-65
2023/10/05 10:48:29;;;;;;;13.65;8.05;;;;;;;;;;5071382;28;20042;-64
2023/10/05 10:50:59;;;;;;;12.45;8.02;;;;;;;;;;5069238;28;20107;-62
2023/10/05 10:53:25;;;;;;;14.63;7.90;;;;;;;;;;5060480;28;20024;-64
2023/10/05 10:56:03;;;;;;;12.30;7.32;;;;;;;;;;5071143;28;20405;-63
2023/10/05 10:58:30;;;;;;;13.83;7.70;;;;;;;;;;5071361;28;20120;-64
2023/10/05 11:01:02;;;;;;;11.32;7.28;;;;;;;;;;5054952;28;20024;-62
2023/10/05 11:03:30;;;;;;;10.98;7.07;;;;;;;;;;5074835;28;20077;-65
2023/10/05 11:05:57;;;;;;;10.05;6.60;;;;;;;;;;5054180;28;20028;-63
2023/10/05 11:08:23;;;;;;;12.57;7.15;;;;;;;;;;5078007;28;20027;-64
2023/10/05 11:11:09;;;;;;;12.10;7.10;;;;;;;;;;5054641;28;20025;-63
2023/10/05 11:13:38;;;;;;;13.35;7.22;;;;;;;;;;5050611;28;20746;-63
2023/10/05 11:16:04;;;;;;;19.90;8.10;;;;;;;;;;5067465;28;20042;-63
2023/10/05 11:18:38;;;;;;;12.43;7.68;;;;;;;;;;5058671;28;20723;-64
2023/10/05 11:21:33;;;;;;;10.85;7.30;;;;;;;;;;5084661;27;20024;-63
2023/10/05 11:24:06;;;;;;;12.52;7.03;;;;;;;;;;5068769;28;20851;-63
2023/10/05 11:26:56;;;;;;;11.57;7.10;;;;;;;;;;5051742;28;20353;-63
2023/10/05 11:29:28;;;;;;;11.48;6.88;;;;;;;;;;5073013;28;20819;-64
2023/10/05 11:32:01;;;;;;;13.68;8.07;;;;;;;;;;5072969;28;20020;-63
2023/10/05 11:34:28;;;;;;;11.10;7.35;;;;;;;;;;5074194;28;20109;-63
2023/10/05 11:36:58;;;;;;;10.95;6.90;;;;;;;;;;5049159;28;20016;-62
2023/10/05 11:39:27;;;;;;;9.98;7.13;;;;;;;;;;5055691;28;20031;-63
2023/10/05 11:41:56;;;;;;;12.80;7.30;;;;;;;;;;5056245;28;20038;-63
2023/10/05 11:44:24;;;;;;;10.45;6.97;;;;;;;;;;5067111;28;20099;-63
2023/10/05 11:46:55;;;;;;;21.90;8.88;;;;;;;;;;5075116;28;20030;-63
2023/10/05 11:49:20;;;;;;;12.38;7.43;;;;;;;;;;5072549;28;20580;-63
2023/10/05 11:51:59;;;;;;;14.02;7.43;;;;;;;;;;5053963;28;20135;-63
2023/10/05 11:54:24;;;;;;;13.45;7.43;;;;;;;;;;5066952;28;20540;-64
2023/10/05 11:56:50;;;;;;;12.73;8.10;;;;;;;;;;5070683;28;20113;-64
2023/10/05 11:59:26;;;;;;;12.48;8.52;;;;;;;;;;5060069;28;20592;-64
2023/10/05 12:01:51;;;;;;;12.63;8.35;;;;;;;;;;5069973;28;20016;-63
2023/10/05 12:04:19;;;;;;;12.23;8.00;;;;;;;;;;5060268;28;20028;-64
2023/10/05 12:06:52;;;;;;;12.52;8.07;;;;;;;;;;5057021;28;20024;-63
2023/10/05 12:09:27;;;;;;;11.90;7.72;;;;;;;;;;5058831;28;20475;-63
2023/10/05 12:11:57;;;;;;;12.90;9.07;;;;;;;;;;5067549;28;20825;-63
2023/10/05 12:14:23;;;;;;;14.27;8.90;;;;;;;;;;5078178;28;20120;-62
2023/10/05 12:16:48;;;;;;;13.88;8.65;;;;;;;;;;5063545;28;20020;-63
2023/10/05 12:19:13;;;;;;;11.00;8.07;;;;;;;;;;5078836;28;20092;-63
2023/10/05 12:21:45;;;;;;;16.57;8.70;;;;;;;;;;5071657;28;20514;-63
2023/10/05 12:24:13;;;;;;;14.35;7.97;;;;;;;;;;5074451;28;20990;-63
2023/10/05 12:26:39;;;;;;;14.95;8.73;;;;;;;;;;5068626;28;20031;-63
2023/10/05 12:29:12;;;;;;;12.52;8.57;;;;;;;;;;5070964;28;20019;-65
2023/10/05 12:31:38;;;;;;;14.30;8.63;;;;;;;;;;5077249;28;20328;-62
2023/10/05 12:34:07;;;;;;;11.10;8.20;;;;;;;;;;5067787;28;20020;-63
2023/10/05 12:36:34;;;;;;;;;;;;;;;;;;5073718;28;20016;-63
2023/10/05 12:39:00;;;;;;;13.90;8.73;;;;;;;;;;5078728;28;19908;-63
2023/10/05 12:41:36;;;;;;;11.53;8.90;;;;;;;;;;5069980;28;20097;-64
2023/10/05 12:44:02;;;;;;;13.48;9.27;;;;;;;;;;5075109;28;20275;-63
2023/10/05 12:46:32;;;;;;;13.00;9.23;;;;;;;;;;5072344;28;20028;-63
2023/10/05 12:49:04;;;;;;;13.73;9.20;;;;;;;;;;5078371;28;20561;-63
2023/10/05 12:51:34;;;;;;;13.57;8.50;;;;;;;;;;5074066;28;20012;-63
2023/10/05 12:53:59;;;;;;;16.05;9.25;;;;;;;;;;5056578;28;20622;-60
2023/10/05 12:56:25;;;;;;;13.07;8.77;;;;;;;;;;5060736;28;20024;-62
2023/10/05 12:58:50;;;;;;;12.20;8.68;;;;;;;;;;5073776;28;20016;-63
2023/10/05 13:01:17;;;;;;;12.83;9.23;;;;;;;;;;5063969;28;20009;-62
2023/10/05 13:03:44;;;;;;;15.15;9.63;;;;;;;;;;5073144;28;20065;-62
2023/10/05 13:06:10;;;;;;;15.93;9.52;;;;;;;;;;5071111;28;20050;-62
2023/10/05 13:08:36;;;;;;;14.68;9.70;;;;;;;;;;5069700;28;20506;-62
2023/10/05 13:11:03;;;;;;;12.60;9.48;;;;;;;;;;5055706;28;20486;-62
2023/10/05 13:13:29;;;;;;;18.85;9.80;;;;;;;;;;5069129;28;20174;-62
2023/10/05 13:15:56;;;;;;;12.65;9.23;;;;;;;;;;5070038;28;20463;-62
2023/10/05 13:18:26;;;;;;;11.80;8.77;;;;;;;;;;5069179;28;20673;-63
2023/10/05 13:20:53;;;;;;;12.80;9.20;;;;;;;;;;5052940;28;20064;-62
2023/10/05 13:23:24;;;;;;;13.88;9.70;;;;;;;;;;5054885;28;20024;-62
2023/10/05 13:25:50;;;;;;;13.60;9.20;;;;;;;;;;5051332;28;20039;-63
2023/10/05 13:28:16;;;;;;;13.57;9.98;;;;;;;;;;5061279;28;20024;-62
2023/10/05 13:30:43;;;;;;;12.65;9.18;;;;;;;;;;5050095;28;20030;-61
2023/10/05 13:33:17;;;;;;;14.05;9.80;;;;;;;;;;5060896;28;20042;-62
2023/10/05 13:35:44;;;;;;;14.48;9.13;;;;;;;;;;5049316;28;20019;-62
2023/10/05 13:38:12;;;;;;;13.18;9.32;;;;;;;;;;5062291;28;20016;-63
2023/10/05 13:40:37;;;;;;;12.80;9.10;;;;;;;;;;5070931;28;20107;-62
2023/10/05 13:43:04;;;;;;;14.20;8.90;;;;;;;;;;5065445;28;20031;-62
2023/10/05 13:45:29;;;;;;;13.05;9.43;;;;;;;;;;5053209;28;20123;-62
2023/10/05 13:47:57;;;;;;;13.83;9.80;;;;;;;;;;5055380;28;20382;-62
2023/10/05 13:50:23;;;;;;;13.68;9.73;;;;;;;;;;5074219;28;20044;-62
2023/10/05 13:52:51;;;;;;;12.77;9.40;;;;;;;;;;5066807;28;20019;-62
2023/10/05 13:55:19;;;;;;;13.90;10.27;;;;;;;;;;5073370;28;20062;-61
2023/10/05 13:57:44;;;;;;;13.02;10.25;;;;;;;;;;5068481;28;21210;-61
2023/10/05 14:00:18;;;;;;;12.80;9.90;;;;;;;;;;5052670;28;20021;-62
2023/10/05 14:02:44;;;;;;;13.68;9.55;;;;;;;;;;5066421;28;20016;-62
2023/10/05 14:05:09;;;;;;;12.93;8.95;;;;;;;;;;5048074;28;20803;-62
2023/10/05 14:07:34;;;;;;;13.13;9.77;;;;;;;;;;5071828;28;20130;-63
2023/10/05 14:10:00;;;;;;;14.20;9.60;;;;;;;;;;5065386;28;20021;-62
2023/10/05 14:12:25;;;;;;;17.85;10.35;;;;;;;;;;5071432;28;20995;-62
2023/10/05 14:14:50;;;;;;;15.38;10.60;;;;;;;;;;5054107;28;20024;-62
2023/10/05 14:17:16;;;;;;;13.57;9.97;;;;;;;;;;5052167;28;20025;-62
2023/10/05 14:19:42;;;;;;;13.45;10.07;;;;;;;;;;5049583;28;20027;-63
2023/10/05 14:22:09;;;;;;;13.75;10.85;;;;;;;;;;5052534;28;20027;-61
2023/10/05 14:24:34;;;;;;;16.80;10.45;;;;;;;;;;5069050;28;20556;-62
2023/10/05 14:27:04;;;;;;;16.50;10.63;;;;;;;;;;5076581;28;20012;-62
2023/10/05 14:29:36;;;;;;;14.63;11.13;;;;;;;;;;5070962;28;20008;-62
2023/10/05 14:32:04;;;;;;;15.13;11.55;;;;;;;;;;5077417;28;20065;-62
2023/10/05 14:34:31;;;;;;;14.38;10.25;;;;;;;;;;5071980;28;20097;-61
2023/10/05 14:36:58;;;;;;;14.65;10.27;;;;;;;;;;5075464;28;20016;-63
2023/10/05 14:39:26;;;;;;;14.32;11.05;;;;;;;;;;5073842;28;20024;-62
2023/10/05 14:41:56;;;;;;;12.20;9.85;;;;;;;;;;5071257;28;20107;-62
2023/10/05 14:44:22;;;;;;;13.52;10.52;;;;;;;;;;5065809;28;20032;-62
2023/10/05 14:46:49;;;;;;;15.70;11.23;;;;;;;;;;5065019;28;20016;-62